Terminal Aerodrome Forecast
Issued by NWS

Home | Current Version | Previous Version | Text Only | Print | Product List | Glossary Off
Versions: 1 2 3 4 5 6 7 8 9 10 11 12 13 14 15 16 17 18 19 20 21 22 23 24 25 26

000
FTUS41 KCLE 052100 AAA
TAFFDY
TAF AMD
KFDY 052152Z 0522/0618 05010KT P6SM VCSH SCT025 BKN120
      TEMPO 0522/0524 6SM -SHRA BR BKN025
     FM060000 05005KT 5SM HZ SCT012 BKN080
     FM060600 12004KT 3SM BR OVC012
     FM061000 16003KT 2SM BR OVC006
     FM061500 22005KT 6SM HZ SCT012 BKN035=

USA.gov is the U.S. government's official web portal to all federal, state and local government web resources and services.